createdAt,value
2019-05-11T00:00:27.869Z,99.99
2019-05-11T00:01:27.852Z,99.99
2019-05-11T00:02:27.843Z,99.99
2019-05-11T00:03:27.828Z,99.99
2019-05-11T00:04:27.816Z,99.99
2019-05-11T00:05:27.806Z,99.99
2019-05-11T00:06:27.793Z,99.99
2019-05-11T00:07:27.782Z,99.99
2019-05-11T00:08:27.770Z,99.99
2019-05-11T00:09:27.758Z,99.99
2019-05-11T00:10:27.747Z,99.99
2019-05-11T00:11:27.733Z,99.99
2019-05-11T00:12:27.731Z,99.99
2019-05-11T00:13:27.713Z,99.99
2019-05-11T00:14:27.700Z,99.99
2019-05-11T00:15:27.685Z,99.99
2019-05-11T00:16:27.673Z,99.99
2019-05-11T00:17:27.662Z,99.99
2019-05-11T00:18:27.650Z,99.99
2019-05-11T00:19:27.637Z,99.99
2019-05-11T00:20:27.625Z,99.99
2019-05-11T00:21:27.613Z,99.99
2019-05-11T00:22:27.601Z,99.99
2019-05-11T00:23:27.589Z,99.99
2019-05-11T00:24:29.650Z,99.99
2019-05-11T00:25:27.566Z,99.99
2019-05-11T00:26:27.555Z,99.99
2019-05-11T00:27:27.542Z,99.99
2019-05-11T00:28:27.529Z,99.99
2019-05-11T00:29:27.594Z,99.99
2019-05-11T00:30:27.505Z,99.99
2019-05-11T00:31:27.495Z,99.99
2019-05-11T00:32:27.484Z,99.99
2019-05-11T00:33:27.470Z,99.99
2019-05-11T00:34:27.459Z,99.99
2019-05-11T00:35:27.446Z,99.99
2019-05-11T00:36:27.433Z,99.99
2019-05-11T00:37:27.424Z,99.99
2019-05-11T00:38:27.409Z,99.99
2019-05-11T00:39:27.448Z,99.99
2019-05-11T00:40:27.392Z,99.99
2019-05-11T00:41:27.385Z,99.99
2019-05-11T00:42:27.379Z,99.99
2019-05-11T00:43:27.347Z,99.99
2019-05-11T00:44:27.335Z,99.99
2019-05-11T00:45:27.323Z,99.99
2019-05-11T00:46:27.310Z,99.99
2019-05-11T00:47:27.298Z,99.99
2019-05-11T00:48:27.285Z,99.99
2019-05-11T00:49:27.273Z,99.99
2019-05-11T00:50:38.955Z,99.99
2019-05-11T00:51:27.248Z,99.99
2019-05-11T00:52:27.236Z,99.99
2019-05-11T00:53:27.224Z,99.99
2019-05-11T00:54:27.212Z,99.99
2019-05-11T00:55:27.205Z,99.99
2019-05-11T00:56:27.188Z,99.99
2019-05-11T00:57:27.176Z,99.99
2019-05-11T00:58:27.164Z,99.99
2019-05-11T00:59:27.203Z,99.99
2019-05-11T01:00:27.139Z,99.99
2019-05-11T01:01:27.130Z,99.99
2019-05-11T01:02:27.115Z,99.99
2019-05-11T01:03:27.106Z,99.99
2019-05-11T01:04:27.091Z,99.99
2019-05-11T01:05:27.081Z,99.99
2019-05-11T01:06:27.098Z,99.99
2019-05-11T01:07:27.060Z,99.99
2019-05-11T01:08:27.044Z,99.99
2019-05-11T01:09:27.032Z,99.99
2019-05-11T01:10:40.993Z,99.99
2019-05-11T01:11:27.008Z,99.99
2019-05-11T01:12:26.996Z,99.99
2019-05-11T01:13:26.986Z,99.99
2019-05-11T01:14:26.973Z,99.99
2019-05-11T01:15:26.968Z,99.99
2019-05-11T01:16:26.951Z,99.99
2019-05-11T01:17:26.976Z,99.99
2019-05-11T01:18:26.931Z,99.99
2019-05-11T01:19:26.914Z,99.99
2019-05-11T01:20:26.903Z,99.99
2019-05-11T01:21:26.895Z,99.99
2019-05-11T01:22:26.888Z,99.99
2019-05-11T01:23:26.868Z,99.99
2019-05-11T01:24:26.864Z,99.99
2019-05-11T01:25:26.845Z,99.99
2019-05-11T01:26:26.834Z,99.99
2019-05-11T01:27:26.821Z,99.99
2019-05-11T01:28:26.810Z,99.99
2019-05-11T01:29:26.798Z,99.99
2019-05-11T01:30:26.837Z,99.99
2019-05-11T01:31:26.775Z,99.99
2019-05-11T01:32:26.764Z,99.99
2019-05-11T01:33:26.752Z,99.99
2019-05-11T01:34:26.744Z,99.99
2019-05-11T01:35:26.778Z,99.99
2019-05-11T01:36:26.721Z,99.99
2019-05-11T01:37:26.710Z,99.99
2019-05-11T01:38:26.699Z,99.99
2019-05-11T01:39:26.683Z,99.99
2019-05-11T01:40:26.674Z,99.99
2019-05-11T01:41:26.665Z,99.99
2019-05-11T01:42:26.649Z,99.99
2019-05-11T01:43:26.637Z,99.99
2019-05-11T01:44:26.624Z,99.99
2019-05-11T01:45:26.666Z,99.99
2019-05-11T01:46:26.603Z,99.99
2019-05-11T01:47:26.589Z,99.99
2019-05-11T01:48:26.584Z,99.99
2019-05-11T01:49:26.566Z,99.99
2019-05-11T01:50:26.556Z,99.99
2019-05-11T01:51:26.544Z,99.99
2019-05-11T01:52:26.534Z,99.99
2019-05-11T01:53:26.521Z,99.99
2019-05-11T01:54:26.508Z,99.99
2019-05-11T01:55:26.508Z,99.99
2019-05-11T01:56:26.485Z,99.99
2019-05-11T01:57:26.472Z,99.99
2019-05-11T01:58:26.460Z,99.99
2019-05-11T01:59:26.448Z,99.99
2019-05-11T02:00:26.490Z,99.99
2019-05-11T02:01:26.428Z,99.99
2019-05-11T02:02:26.413Z,99.99
2019-05-11T02:03:26.402Z,99.99
2019-05-11T02:04:26.390Z,99.99
2019-05-11T02:05:26.379Z,99.99
2019-05-11T02:06:26.369Z,99.99
2019-05-11T02:07:26.353Z,99.99
2019-05-11T02:08:26.340Z,99.99
2019-05-11T02:09:26.329Z,99.99
2019-05-11T02:10:26.317Z,99.99
2019-05-11T02:11:26.304Z,99.99
2019-05-11T02:12:26.292Z,99.99
2019-05-11T02:13:26.279Z,99.99
2019-05-11T02:14:26.268Z,99.99
2019-05-11T02:15:26.254Z,99.99
2019-05-11T02:16:26.242Z,99.99
2019-05-11T02:17:26.230Z,99.99
2019-05-11T02:18:26.221Z,99.99
2019-05-11T02:19:26.208Z,99.99
2019-05-11T02:20:26.194Z,99.99
2019-05-11T02:21:26.180Z,99.99
2019-05-11T02:22:26.169Z,99.99
2019-05-11T02:23:26.155Z,99.99
2019-05-11T02:24:26.144Z,99.99
2019-05-11T02:25:26.131Z,99.99
2019-05-11T02:26:26.119Z,99.99
2019-05-11T02:27:26.117Z,99.99
2019-05-11T02:28:26.093Z,99.99
2019-05-11T02:29:26.084Z,99.99
2019-05-11T02:30:26.093Z,99.99
2019-05-11T02:31:26.117Z,99.99
2019-05-11T02:32:26.045Z,99.99
2019-05-11T02:33:26.034Z,99.99
2019-05-11T02:34:26.022Z,99.99
2019-05-11T02:35:26.014Z,99.99
2019-05-11T02:36:25.996Z,99.99
2019-05-11T02:37:25.984Z,99.99
2019-05-11T02:38:25.972Z,99.99
2019-05-11T02:39:25.960Z,99.99
2019-05-11T02:40:25.946Z,99.99
2019-05-11T02:41:36.546Z,99.99
2019-05-11T02:42:25.971Z,99.99
2019-05-11T02:43:25.915Z,99.99
2019-05-11T02:44:25.898Z,99.99
2019-05-11T02:45:25.887Z,99.99
2019-05-11T02:46:25.874Z,99.99
2019-05-11T02:47:25.873Z,99.99
2019-05-11T02:48:25.849Z,99.99
2019-05-11T02:49:28.197Z,99.99
2019-05-11T02:50:25.827Z,99.99
2019-05-11T02:51:25.812Z,99.99
2019-05-11T02:52:25.801Z,99.99
2019-05-11T02:53:25.795Z,99.99
2019-05-11T02:54:25.779Z,99.99
2019-05-11T02:55:25.765Z,99.99
2019-05-11T02:56:25.763Z,99.99
2019-05-11T02:57:25.792Z,99.99
2019-05-11T02:58:25.729Z,99.99
2019-05-11T02:59:29.661Z,99.99
2019-05-11T03:00:25.707Z,99.99
2019-05-11T03:01:25.697Z,99.99
2019-05-11T03:02:25.686Z,99.99
2019-05-11T03:03:25.671Z,99.99
2019-05-11T03:04:25.657Z,99.99
2019-05-11T03:05:25.647Z,99.99
2019-05-11T03:06:25.634Z,99.99
2019-05-11T03:07:25.624Z,99.99
2019-05-11T03:08:25.611Z,99.99
2019-05-11T03:09:25.602Z,99.99
2019-05-11T03:10:25.589Z,99.99
2019-05-11T03:11:25.574Z,99.99
2019-05-11T03:12:25.564Z,99.99
2019-05-11T03:13:25.569Z,99.99
2019-05-11T03:14:25.662Z,99.99
2019-05-11T03:15:25.527Z,99.99
2019-05-11T03:16:25.523Z,99.99
2019-05-11T03:17:25.509Z,99.99
2019-05-11T03:18:25.493Z,99.99
2019-05-11T03:19:25.481Z,99.99
2019-05-11T03:20:25.469Z,99.99
2019-05-11T03:21:25.458Z,99.99
2019-05-11T03:22:25.452Z,99.99
2019-05-11T03:23:25.432Z,99.99
2019-05-11T03:24:25.422Z,99.99
2019-05-11T03:25:25.409Z,99.99
2019-05-11T03:26:25.399Z,99.99
2019-05-11T03:27:25.389Z,99.99
2019-05-11T03:28:25.373Z,99.99
2019-05-11T03:29:25.366Z,99.99
2019-05-11T03:30:25.370Z,99.99
2019-05-11T03:31:25.382Z,99.99
2019-05-11T03:32:25.347Z,99.99
2019-05-11T03:33:25.320Z,99.99
2019-05-11T03:34:25.310Z,99.99
2019-05-11T03:35:25.322Z,99.99
2019-05-11T03:36:25.281Z,99.99
2019-05-11T03:37:25.275Z,99.99
2019-05-11T03:38:25.257Z,99.99
2019-05-11T03:39:25.243Z,99.99
2019-05-11T03:40:25.233Z,99.99
2019-05-11T03:41:25.225Z,99.99
2019-05-11T03:42:25.261Z,99.99
2019-05-11T03:43:25.197Z,99.99
2019-05-11T03:44:25.184Z,99.99
2019-05-11T03:45:25.172Z,99.99
2019-05-11T03:46:25.164Z,99.99
2019-05-11T03:47:25.150Z,99.99
2019-05-11T03:48:25.141Z,99.99
2019-05-11T03:49:25.124Z,99.99
2019-05-11T03:50:25.116Z,99.99
2019-05-11T03:51:25.101Z,99.99
2019-05-11T03:52:25.095Z,99.99
2019-05-11T03:53:25.075Z,99.99
2019-05-11T03:54:25.065Z,99.99
2019-05-11T03:55:25.052Z,99.99
2019-05-11T03:56:25.040Z,99.99
2019-05-11T03:57:25.040Z,99.99
2019-05-11T03:58:26.614Z,99.99
2019-05-11T03:59:25.006Z,99.99
2019-05-11T04:00:24.992Z,99.99
2019-05-11T04:01:24.981Z,99.99
2019-05-11T04:02:24.970Z,99.99
2019-05-11T04:03:24.954Z,99.99
2019-05-11T04:04:24.951Z,99.99
2019-05-11T04:05:24.932Z,99.99
2019-05-11T04:06:24.921Z,99.99
2019-05-11T04:07:25.040Z,99.99
2019-05-11T04:08:24.903Z,99.99
2019-05-11T04:09:24.903Z,99.99
2019-05-11T04:10:25.714Z,99.99
2019-05-11T04:11:24.861Z,99.99
2019-05-11T04:12:34.936Z,99.99
2019-05-11T04:13:24.839Z,99.99
2019-05-11T04:14:24.831Z,99.99
2019-05-11T04:15:24.817Z,99.99
2019-05-11T04:16:24.805Z,99.99
2019-05-11T04:17:24.790Z,99.99
2019-05-11T04:18:24.777Z,99.99
2019-05-11T04:19:24.765Z,99.99
2019-05-11T04:20:24.755Z,99.99
2019-05-11T04:21:24.743Z,99.99
2019-05-11T04:22:24.730Z,99.99
2019-05-11T04:23:24.717Z,99.99
2019-05-11T04:24:24.708Z,99.99
2019-05-11T04:25:24.714Z,99.99
2019-05-11T04:26:24.690Z,99.99
2019-05-11T04:27:24.670Z,99.99
2019-05-11T04:28:24.658Z,99.99
2019-05-11T04:29:24.648Z,99.99
2019-05-11T04:30:24.641Z,99.99
2019-05-11T04:31:24.631Z,99.99
2019-05-11T04:32:24.612Z,99.99
2019-05-11T04:33:24.606Z,99.99
2019-05-11T04:34:24.593Z,99.99
2019-05-11T04:35:24.577Z,99.99
2019-05-11T04:36:24.564Z,99.99
2019-05-11T04:37:24.554Z,99.99
2019-05-11T04:38:24.549Z,99.99
2019-05-11T04:39:24.531Z,99.99
2019-05-11T04:40:24.517Z,99.99
2019-05-11T04:41:24.507Z,99.99
2019-05-11T04:42:24.495Z,99.99
2019-05-11T04:43:24.488Z,99.99
2019-05-11T04:44:24.471Z,99.99
2019-05-11T04:45:24.465Z,99.99
2019-05-11T04:46:24.448Z,99.99
2019-05-11T04:47:24.442Z,99.99
2019-05-11T04:48:24.424Z,99.99
2019-05-11T04:49:24.414Z,99.99
2019-05-11T04:50:24.399Z,99.99
2019-05-11T04:51:24.387Z,99.99
2019-05-11T04:52:24.378Z,99.99
2019-05-11T04:53:24.365Z,99.99
2019-05-11T04:54:24.356Z,99.99
2019-05-11T04:55:24.340Z,99.99
2019-05-11T04:56:24.328Z,99.99
2019-05-11T04:57:24.317Z,99.99
2019-05-11T04:58:24.305Z,99.99
2019-05-11T04:59:24.342Z,99.99
2019-05-11T05:00:24.281Z,99.99
2019-05-11T05:01:24.272Z,99.99
2019-05-11T05:02:27.180Z,99.99
2019-05-11T05:03:39.728Z,99.99
2019-05-11T05:04:24.233Z,99.99
2019-05-11T05:05:24.222Z,99.99
2019-05-11T05:06:24.778Z,99.99
2019-05-11T05:07:24.196Z,99.99
2019-05-11T05:08:26.715Z,99.99
2019-05-11T05:09:24.200Z,99.99
2019-05-11T05:10:24.164Z,99.99
2019-05-11T05:11:24.150Z,99.99
2019-05-11T05:12:24.137Z,99.99
2019-05-11T05:13:29.294Z,99.99
2019-05-11T05:14:24.113Z,99.99
2019-05-11T05:15:24.106Z,99.99
2019-05-11T05:16:24.089Z,99.99
2019-05-11T05:17:24.080Z,99.99
2019-05-11T05:18:24.066Z,99.99
2019-05-11T05:19:24.060Z,99.99
2019-05-11T05:20:24.041Z,99.99
2019-05-11T05:21:24.029Z,99.99
2019-05-11T05:22:27.797Z,99.99
2019-05-11T05:23:24.006Z,99.99
2019-05-11T05:24:23.993Z,99.99
2019-05-11T05:25:23.981Z,99.99
2019-05-11T05:26:23.977Z,99.99
2019-05-11T05:27:23.961Z,99.99
2019-05-11T05:28:23.947Z,99.99
2019-05-11T05:29:23.933Z,99.99
2019-05-11T05:30:23.922Z,99.99
2019-05-11T05:31:23.909Z,99.99
2019-05-11T05:32:23.897Z,99.99
2019-05-11T05:33:23.885Z,99.99
2019-05-11T05:34:23.874Z,99.99
2019-05-11T05:35:23.876Z,99.99
2019-05-11T05:36:23.851Z,99.99
2019-05-11T05:37:23.839Z,99.99
2019-05-11T05:38:23.827Z,99.99
2019-05-11T05:39:23.815Z,99.99
2019-05-11T05:40:23.804Z,99.99
2019-05-11T05:41:23.792Z,99.99
2019-05-11T05:42:23.781Z,99.99
2019-05-11T05:43:27.671Z,99.99
2019-05-11T05:44:27.477Z,99.99
2019-05-11T05:45:23.746Z,99.99
2019-05-11T05:46:23.735Z,99.99
2019-05-11T05:47:23.724Z,99.99
2019-05-11T05:48:23.712Z,99.99
2019-05-11T05:49:23.701Z,99.99
2019-05-11T05:50:23.692Z,99.99
2019-05-11T05:51:23.678Z,99.99
2019-05-11T05:52:23.666Z,99.99
2019-05-11T05:53:23.657Z,99.99
2019-05-11T05:54:23.644Z,99.99
2019-05-11T05:55:23.633Z,99.99
2019-05-11T05:56:23.621Z,99.99
2019-05-11T05:57:23.610Z,99.99
2019-05-11T05:58:23.600Z,99.99
2019-05-11T05:59:23.588Z,99.99
2019-05-11T06:00:23.582Z,99.99
2019-05-11T06:01:23.566Z,99.99
2019-05-11T06:02:23.561Z,99.99
2019-05-11T06:03:23.545Z,99.99
2019-05-11T06:04:23.531Z,99.99
2019-05-11T06:05:23.524Z,99.99
2019-05-11T06:06:23.509Z,99.99
2019-05-11T06:07:23.500Z,99.99
2019-05-11T06:08:23.486Z,99.99
2019-05-11T06:09:23.479Z,99.99
2019-05-11T06:10:23.464Z,99.99
2019-05-11T06:11:23.452Z,99.99
2019-05-11T06:12:23.443Z,99.99
2019-05-11T06:13:23.431Z,99.99
2019-05-11T06:14:23.421Z,99.99
2019-05-11T06:15:23.408Z,99.99
2019-05-11T06:16:23.401Z,99.99
2019-05-11T06:17:23.400Z,99.99
2019-05-11T06:18:23.380Z,99.99
2019-05-11T06:19:23.364Z,99.99
2019-05-11T06:20:23.354Z,99.99
2019-05-11T06:21:23.343Z,99.99
2019-05-11T06:22:23.335Z,99.99
2019-05-11T06:23:23.321Z,99.99
2019-05-11T06:24:23.310Z,99.99
2019-05-11T06:25:23.300Z,99.99
2019-05-11T06:26:23.288Z,99.99
2019-05-11T06:27:23.277Z,99.99
2019-05-11T06:28:23.270Z,99.99
2019-05-11T06:29:23.256Z,99.99
2019-05-11T06:30:23.246Z,99.99
2019-05-11T06:31:23.285Z,99.99
2019-05-11T06:32:23.223Z,99.99
2019-05-11T06:33:23.220Z,99.99
2019-05-11T06:34:23.204Z,99.99
2019-05-11T06:35:23.193Z,99.99
2019-05-11T06:36:23.182Z,99.99
2019-05-11T06:37:23.169Z,99.99
2019-05-11T06:38:23.159Z,99.99
2019-05-11T06:39:23.147Z,99.99
2019-05-11T06:40:23.136Z,99.99
2019-05-11T06:41:23.127Z,99.99
2019-05-11T06:42:23.124Z,99.99
2019-05-11T06:43:23.103Z,99.99
2019-05-11T06:44:23.093Z,99.99
2019-05-11T06:45:23.085Z,99.99
2019-05-11T06:46:23.072Z,99.99
2019-05-11T06:47:23.062Z,99.99
2019-05-11T06:48:23.053Z,99.99
2019-05-11T06:49:23.039Z,99.99
2019-05-11T06:50:23.029Z,99.99
2019-05-11T06:51:23.017Z,99.99
2019-05-11T06:52:23.009Z,99.99
2019-05-11T06:53:23.014Z,99.99
2019-05-11T06:54:22.986Z,99.99
2019-05-11T06:55:22.975Z,99.99
2019-05-11T06:56:22.964Z,99.99
2019-05-11T06:57:22.954Z,99.99
2019-05-11T06:58:22.943Z,99.99
2019-05-11T06:59:22.932Z,99.99
2019-05-11T07:00:22.922Z,99.99
2019-05-11T07:01:22.916Z,99.99
2019-05-11T07:02:22.902Z,99.99
2019-05-11T07:03:22.889Z,99.99
2019-05-11T07:04:22.879Z,99.99
2019-05-11T07:05:22.870Z,99.99
2019-05-11T07:06:26.214Z,99.99
2019-05-11T07:07:22.848Z,99.99
2019-05-11T07:08:22.838Z,99.99
2019-05-11T07:09:22.827Z,99.99
2019-05-11T07:10:22.820Z,99.99
2019-05-11T07:11:22.807Z,99.99
2019-05-11T07:12:22.800Z,99.99
2019-05-11T07:13:22.790Z,99.99
2019-05-11T07:14:22.784Z,99.99
2019-05-11T07:15:22.767Z,99.99
2019-05-11T07:16:22.757Z,99.99
2019-05-11T07:17:22.753Z,99.99
2019-05-11T07:18:22.737Z,99.99
2019-05-11T07:19:22.725Z,99.99
2019-05-11T07:20:22.716Z,99.99
2019-05-11T07:21:22.706Z,99.99
2019-05-11T07:22:22.698Z,99.99
2019-05-11T07:23:22.694Z,99.99
2019-05-11T07:24:22.679Z,99.99
2019-05-11T07:25:22.665Z,99.99
2019-05-11T07:26:22.656Z,99.99
2019-05-11T07:27:22.644Z,99.99
2019-05-11T07:28:22.642Z,99.99
2019-05-11T07:29:22.628Z,99.99
2019-05-11T07:30:22.615Z,99.99
2019-05-11T07:31:22.603Z,99.99
2019-05-11T07:32:25.958Z,99.99
2019-05-11T07:33:22.583Z,99.99
2019-05-11T07:34:22.574Z,99.99
2019-05-11T07:35:22.563Z,99.99
2019-05-11T07:36:22.553Z,99.99
2019-05-11T07:37:24.355Z,99.99
2019-05-11T07:38:22.533Z,99.99
2019-05-11T07:39:22.522Z,99.99
2019-05-11T07:40:22.512Z,99.99
2019-05-11T07:41:22.502Z,99.99
2019-05-11T07:42:22.493Z,99.99
2019-05-11T07:43:22.481Z,99.99
2019-05-11T07:44:34.954Z,99.99
2019-05-11T07:45:22.461Z,99.99
2019-05-11T07:46:22.451Z,99.99
2019-05-11T07:47:22.442Z,99.99
2019-05-11T07:48:22.433Z,99.99
2019-05-11T07:49:23.542Z,99.99
2019-05-11T07:50:22.411Z,99.99
2019-05-11T07:51:22.400Z,99.99
2019-05-11T07:52:22.442Z,99.99
2019-05-11T07:53:22.383Z,99.99
2019-05-11T07:54:22.377Z,99.99
2019-05-11T07:55:22.363Z,99.99
2019-05-11T07:56:22.352Z,99.99
2019-05-11T07:57:22.341Z,99.99
2019-05-11T07:58:22.333Z,99.99
2019-05-11T07:59:22.330Z,99.99
2019-05-11T08:00:22.312Z,99.99
2019-05-11T08:01:22.302Z,99.99
2019-05-11T08:02:22.305Z,99.99
2019-05-11T08:03:22.281Z,99.99
2019-05-11T08:04:22.277Z,99.99
2019-05-11T08:05:22.262Z,99.99
2019-05-11T08:06:22.253Z,99.99
2019-05-11T08:07:22.243Z,99.99
2019-05-11T08:08:25.093Z,99.99
2019-05-11T08:09:22.223Z,99.99
2019-05-11T08:10:22.214Z,99.99
2019-05-11T08:11:22.203Z,99.99
2019-05-11T08:12:22.196Z,99.99
2019-05-11T08:13:22.186Z,99.99
2019-05-11T08:14:22.176Z,99.99
2019-05-11T08:15:22.164Z,99.99
2019-05-11T08:16:22.156Z,99.99
2019-05-11T08:17:22.146Z,99.99
2019-05-11T08:18:22.136Z,99.99
2019-05-11T08:19:22.126Z,99.99
2019-05-11T08:20:22.117Z,99.99
2019-05-11T08:21:22.112Z,99.99
2019-05-11T08:22:22.938Z,99.99
2019-05-11T08:23:22.089Z,99.99
2019-05-11T08:24:22.081Z,99.99
2019-05-11T08:25:22.071Z,99.99
2019-05-11T08:26:22.067Z,99.99
2019-05-11T08:27:22.052Z,99.99
2019-05-11T08:28:22.044Z,99.99
2019-05-11T08:29:22.033Z,99.99
2019-05-11T08:30:22.025Z,99.99
2019-05-11T08:31:22.015Z,99.99
2019-05-11T08:32:22.008Z,99.99
2019-05-11T08:33:21.998Z,99.99
2019-05-11T08:34:21.989Z,99.99
2019-05-11T08:35:21.980Z,99.99
2019-05-11T08:36:21.970Z,99.99
2019-05-11T08:37:21.961Z,99.99
2019-05-11T08:38:21.957Z,99.99
2019-05-11T08:39:21.943Z,99.99
2019-05-11T08:40:21.936Z,99.99
2019-05-11T08:41:21.926Z,99.99
2019-05-11T08:42:21.917Z,99.99
2019-05-11T08:43:21.958Z,99.99
2019-05-11T08:44:21.905Z,99.99
2019-05-11T08:45:24.706Z,99.99
2019-05-11T08:46:21.884Z,99.99
2019-05-11T08:47:21.873Z,99.99
2019-05-11T08:48:21.864Z,99.99
2019-05-11T08:49:21.856Z,99.99
2019-05-11T08:50:21.848Z,99.99
2019-05-11T08:51:21.843Z,99.99
2019-05-11T08:52:21.831Z,99.99
2019-05-11T08:53:21.824Z,99.99
2019-05-11T08:54:21.815Z,99.99
2019-05-11T08:55:21.808Z,99.99
2019-05-11T08:56:21.799Z,99.99
2019-05-11T08:57:21.790Z,99.99
2019-05-11T08:58:21.787Z,99.99
2019-05-11T08:59:21.775Z,99.99
2019-05-11T09:00:21.765Z,99.99
2019-05-11T09:01:21.757Z,99.99
2019-05-11T09:02:21.753Z,99.99
2019-05-11T09:03:21.741Z,99.99
2019-05-11T09:04:21.733Z,99.99
2019-05-11T09:05:21.725Z,99.99
2019-05-11T09:06:21.717Z,99.99
2019-05-11T09:07:21.709Z,99.99
2019-05-11T09:08:21.701Z,99.99
2019-05-11T09:09:21.693Z,99.99
2019-05-11T09:10:21.686Z,99.99
2019-05-11T09:11:21.679Z,99.99
2019-05-11T09:12:21.669Z,99.99
2019-05-11T09:13:21.660Z,99.99
2019-05-11T09:14:21.653Z,99.99
2019-05-11T09:15:33.672Z,99.99
2019-05-11T09:16:21.637Z,99.99
2019-05-11T09:17:21.632Z,99.99
2019-05-11T09:18:21.620Z,99.99
2019-05-11T09:19:21.609Z,99.99
2019-05-11T09:20:21.609Z,99.99
2019-05-11T09:21:21.596Z,99.99
2019-05-11T09:22:21.584Z,99.99
2019-05-11T09:23:33.560Z,99.99
2019-05-11T09:24:21.570Z,99.99
2019-05-11T09:25:21.560Z,99.99
2019-05-11T09:26:21.551Z,99.99
2019-05-11T09:27:21.544Z,99.99
2019-05-11T09:28:21.534Z,99.99
2019-05-11T09:29:21.528Z,99.99
2019-05-11T09:30:21.523Z,99.99
2019-05-11T09:31:21.511Z,99.99
2019-05-11T09:32:21.504Z,99.99
2019-05-11T09:33:21.499Z,99.99
2019-05-11T09:34:21.491Z,99.99
2019-05-11T09:35:21.482Z,99.99
2019-05-11T09:36:21.499Z,99.99
2019-05-11T09:37:21.469Z,99.99
2019-05-11T09:38:21.462Z,99.99
2019-05-11T09:39:21.455Z,99.99
2019-05-11T09:40:21.448Z,99.99
2019-05-11T09:41:21.442Z,99.99
2019-05-11T09:42:21.435Z,99.99
2019-05-11T09:43:21.428Z,98.90
2019-05-11T09:44:21.425Z,99.48
2019-05-11T09:45:21.419Z,99.99
2019-05-11T09:46:21.411Z,99.99
2019-05-11T09:47:21.406Z,98.90
2019-05-11T09:48:21.405Z,96.13
2019-05-11T09:49:21.402Z,95.65
2019-05-11T09:50:21.394Z,92.63
2019-05-11T09:51:21.392Z,90.91
2019-05-11T09:52:21.387Z,90.53
2019-05-11T09:53:21.388Z,89.76
2019-05-11T09:54:21.385Z,90.05
2019-05-11T09:55:21.379Z,89.48
2019-05-11T09:56:21.377Z,89.48
2019-05-11T09:57:21.374Z,89.00
2019-05-11T09:58:21.374Z,89.95
2019-05-11T09:59:21.370Z,88.90
2019-05-11T10:00:21.367Z,87.43
2019-05-11T10:01:21.366Z,86.76
2019-05-11T10:02:21.362Z,87.19
2019-05-11T10:03:21.359Z,88.24
2019-05-11T10:04:21.356Z,90.06
2019-05-11T10:05:21.356Z,93.26
2019-05-11T10:06:21.354Z,92.44
2019-05-11T10:07:21.350Z,88.71
2019-05-11T10:08:21.349Z,86.94
2019-05-11T10:09:21.347Z,85.60
2019-05-11T10:10:21.346Z,85.50
2019-05-11T10:11:21.345Z,84.49
2019-05-11T10:12:21.353Z,84.58
2019-05-11T10:13:21.345Z,84.16
2019-05-11T10:14:21.344Z,81.86
2019-05-11T10:15:21.342Z,82.24
2019-05-11T10:16:21.341Z,82.49
2019-05-11T10:17:21.340Z,83.11
2019-05-11T10:18:24.248Z,82.30
2019-05-11T10:19:21.338Z,81.54
2019-05-11T10:20:21.335Z,83.93
2019-05-11T10:21:21.332Z,86.90
2019-05-11T10:22:21.333Z,85.51
2019-05-11T10:23:21.327Z,86.37
2019-05-11T10:24:21.323Z,86.18
2019-05-11T10:25:21.321Z,86.18
2019-05-11T10:26:21.316Z,86.66
2019-05-11T10:27:21.311Z,86.23
2019-05-11T10:28:21.307Z,86.33
2019-05-11T10:29:21.303Z,87.00
2019-05-11T10:30:21.299Z,87.66
2019-05-11T10:31:21.292Z,88.43
2019-05-11T10:32:21.287Z,88.91
2019-05-11T10:33:21.282Z,87.66
2019-05-11T10:34:21.280Z,86.23
2019-05-11T10:35:21.271Z,86.23
2019-05-11T10:36:21.267Z,87.09
2019-05-11T10:37:21.262Z,90.20
2019-05-11T10:38:21.258Z,89.91
2019-05-11T10:39:21.255Z,91.39
2019-05-11T10:40:21.250Z,87.47
2019-05-11T10:41:21.245Z,85.75
2019-05-11T10:42:21.240Z,84.12
2019-05-11T10:43:21.234Z,83.64
2019-05-11T10:44:21.230Z,83.06
2019-05-11T10:45:21.226Z,82.01
2019-05-11T10:46:23.485Z,83.69
2019-05-11T10:47:21.221Z,84.36
2019-05-11T10:48:21.212Z,83.50
2019-05-11T10:49:21.207Z,84.46
2019-05-11T10:50:21.202Z,85.03
2019-05-11T10:51:21.197Z,86.08
2019-05-11T10:52:21.197Z,85.55
2019-05-11T10:53:21.187Z,84.74
2019-05-11T10:54:21.183Z,83.68
2019-05-11T10:55:21.181Z,82.09
2019-05-11T10:56:21.177Z,82.04
2019-05-11T10:57:21.173Z,78.78
2019-05-11T10:58:21.173Z,77.00
2019-05-11T10:59:21.168Z,74.31
2019-05-11T11:00:21.171Z,75.08
2019-05-11T11:01:21.165Z,73.90
2019-05-11T11:02:21.166Z,75.71
2019-05-11T11:03:21.161Z,75.62
2019-05-11T11:04:21.159Z,75.33
2019-05-11T11:05:21.158Z,73.13
2019-05-11T11:06:21.172Z,76.96
2019-05-11T11:07:21.155Z,73.35
2019-05-11T11:08:21.154Z,72.81
2019-05-11T11:09:21.155Z,71.66
2019-05-11T11:10:21.157Z,75.15
2019-05-11T11:11:21.158Z,72.31
2019-05-11T11:12:21.160Z,71.98
2019-05-11T11:13:21.160Z,72.95
2019-05-11T11:14:21.162Z,70.80
2019-05-11T11:15:21.163Z,73.45
2019-05-11T11:16:35.780Z,72.20
2019-05-11T11:17:21.160Z,76.23
2019-05-11T11:18:21.160Z,75.27
2019-05-11T11:19:21.156Z,73.74
2019-05-11T11:20:21.155Z,74.98
2019-05-11T11:21:22.939Z,75.43
2019-05-11T11:22:35.890Z,75.81
2019-05-11T11:23:21.149Z,74.91
2019-05-11T11:24:21.147Z,75.16
2019-05-11T11:25:21.145Z,76.31
2019-05-11T11:26:21.141Z,77.23
2019-05-11T11:27:21.138Z,80.77
2019-05-11T11:28:21.133Z,81.97
2019-05-11T11:29:21.129Z,83.17
2019-05-11T11:30:21.133Z,86.33
2019-05-11T11:31:21.119Z,86.57
2019-05-11T11:32:21.115Z,86.29
2019-05-11T11:33:21.110Z,87.72
2019-05-11T11:34:21.104Z,86.76
2019-05-11T11:35:21.097Z,88.01
2019-05-11T11:36:21.091Z,86.10
2019-05-11T11:37:21.086Z,88.43
2019-05-11T11:38:21.098Z,88.91
2019-05-11T11:39:21.073Z,85.61
2019-05-11T11:40:21.068Z,83.06
2019-05-11T11:41:21.064Z,79.75
2019-05-11T11:42:21.059Z,82.29
2019-05-11T11:43:21.055Z,79.39
2019-05-11T11:44:21.052Z,78.38
2019-05-11T11:45:21.050Z,76.88
2019-05-11T11:46:21.091Z,75.21
2019-05-11T11:47:21.854Z,74.06
2019-05-11T11:48:21.042Z,74.98
2019-05-11T11:49:21.040Z,73.90
2019-05-11T11:50:21.036Z,75.77
2019-05-11T11:51:21.032Z,76.40
2019-05-11T11:52:21.029Z,77.17
2019-05-11T11:53:21.036Z,77.80
2019-05-11T11:54:21.021Z,77.70
2019-05-11T11:55:21.016Z,77.33
2019-05-11T11:56:21.011Z,78.24
2019-05-11T11:57:21.007Z,79.10
2019-05-11T11:58:23.722Z,79.49
2019-05-11T11:59:20.996Z,80.25
2019-05-11T12:00:20.995Z,81.25
2019-05-11T12:01:20.986Z,80.77
2019-05-11T12:02:20.981Z,80.62
2019-05-11T12:03:20.976Z,79.99
2019-05-11T12:04:20.971Z,77.73
2019-05-11T12:05:20.973Z,77.19
2019-05-11T12:06:21.051Z,74.98
2019-05-11T12:07:20.960Z,74.22
2019-05-11T12:08:20.960Z,74.08
2019-05-11T12:09:20.955Z,73.90
2019-05-11T12:10:20.949Z,74.33
2019-05-11T12:11:20.945Z,75.29
2019-05-11T12:12:20.940Z,76.12
2019-05-11T12:13:20.937Z,77.26
2019-05-11T12:14:20.981Z,77.17
2019-05-11T12:15:20.925Z,76.56
2019-05-11T12:16:20.928Z,78.28
2019-05-11T12:17:20.915Z,77.61
2019-05-11T12:18:20.910Z,77.70
2019-05-11T12:19:20.907Z,78.19
2019-05-11T12:20:20.898Z,78.57
2019-05-11T12:21:20.891Z,77.99
2019-05-11T12:22:20.887Z,76.79
2019-05-11T12:23:20.879Z,76.06
2019-05-11T12:24:20.874Z,75.46
2019-05-11T12:25:20.877Z,74.06
2019-05-11T12:26:20.866Z,70.99
2019-05-11T12:27:20.862Z,70.90
2019-05-11T12:28:20.857Z,68.98
2019-05-11T12:29:20.856Z,71.15
2019-05-11T12:30:20.850Z,72.49
2019-05-11T12:31:20.844Z,71.92
2019-05-11T12:32:20.840Z,69.29
2019-05-11T12:33:20.835Z,72.30
2019-05-11T12:34:20.832Z,73.16
2019-05-11T12:35:20.827Z,72.33
2019-05-11T12:36:20.822Z,70.90
2019-05-11T12:37:22.066Z,70.17
2019-05-11T12:38:20.815Z,68.88
2019-05-11T12:39:20.809Z,70.03
2019-05-11T12:40:20.805Z,72.20
2019-05-11T12:41:20.801Z,72.36
2019-05-11T12:42:20.797Z,73.95
2019-05-11T12:43:22.612Z,74.11
2019-05-11T12:44:20.785Z,75.12
2019-05-11T12:45:20.780Z,76.71
2019-05-11T12:46:20.774Z,79.96
2019-05-11T12:47:24.877Z,82.17
2019-05-11T12:48:20.761Z,79.68
2019-05-11T12:49:20.755Z,80.59
2019-05-11T12:50:20.748Z,80.02
2019-05-11T12:51:20.741Z,78.14
2019-05-11T12:52:20.735Z,78.14